Time;durP1;ratioP1;P1;durP2;ratioP2;P2;SDS_P1;SDS_P2;PMS_P1;PMS_P2;Temp;Humidity;BMP_temperature;BMP_pressure;BME280_temperature;BME280_humidity;BME280_pressure;Samples;Min_cycle;Max_cycle;Signal;HPM_P1;HPM_P2
2021/12/11 00:01:18;;;;;;;81.97;53.22;;;0.40;99.90;;;;;;5108574;28;20044;-71
2021/12/11 00:03:54;;;;;;;96.10;58.50;;;0.40;99.90;;;;;;5116025;27;20118;-70
2021/12/11 00:06:26;;;;;;;106.60;65.25;;;0.40;99.90;;;;;;5114194;28;20044;-71
2021/12/11 00:08:56;;;;;;;106.50;66.03;;;0.40;99.90;;;;;;5114694;28;20035;-71
2021/12/11 00:11:28;;;;;;;100.25;63.55;;;0.40;99.90;;;;;;5115884;28;20458;-71
2021/12/11 00:13:57;;;;;;;100.32;62.03;;;0.40;99.90;;;;;;5114364;28;20051;-71
2021/12/11 00:16:25;;;;;;;108.32;65.05;;;0.40;99.90;;;;;;5115382;28;20055;-71
2021/12/11 00:18:54;;;;;;;123.97;67.47;;;0.40;99.90;;;;;;5115536;28;20047;-71
2021/12/11 00:21:23;;;;;;;121.40;66.20;;;0.30;99.90;;;;;;5115626;28;20039;-71
2021/12/11 00:23:57;;;;;;;120.55;67.72;;;0.30;99.90;;;;;;5115385;28;20043;-70
2021/12/11 00:26:27;;;;;;;125.88;69.20;;;0.30;99.90;;;;;;5115400;28;20045;-71
2021/12/11 00:28:53;;;;;;;117.65;69.35;;;0.30;99.90;;;;;;5115569;28;20400;-71
2021/12/11 00:31:19;;;;;;;113.97;65.00;;;0.20;99.90;;;;;;5114149;28;20042;-71
2021/12/11 00:33:46;;;;;;;110.57;61.63;;;0.20;99.90;;;;;;5115403;27;20039;-72
2021/12/11 00:36:18;;;;;;;85.43;52.35;;;0.20;99.90;;;;;;5114749;28;20085;-71
2021/12/11 00:38:47;;;;;;;82.60;46.28;;;0.20;99.90;;;;;;5115479;28;20039;-71
2021/12/11 00:41:17;;;;;;;71.15;40.88;;;0.20;99.90;;;;;;5113726;28;20496;-72
2021/12/11 00:43:46;;;;;;;49.97;29.02;;;0.20;99.90;;;;;;5115307;27;20097;-70
2021/12/11 00:46:16;;;;;;;45.63;25.73;;;0.20;99.90;;;;;;5113689;28;20481;-71
2021/12/11 00:48:43;;;;;;;35.42;23.92;;;0.20;99.90;;;;;;5114026;28;20043;-71
2021/12/11 00:51:21;;;;;;;38.75;24.60;;;0.20;99.90;;;;;;5113730;28;20043;-71
2021/12/11 00:53:56;;;;;;;39.10;20.88;;;0.20;99.90;;;;;;5113691;28;20054;-71
2021/12/11 00:56:23;;;;;;;29.58;19.02;;;0.20;99.90;;;;;;5113074;28;20504;-71
2021/12/11 00:58:52;;;;;;;31.15;17.65;;;0.20;99.90;;;;;;5113395;28;20370;-71
2021/12/11 01:01:28;;;;;;;27.08;17.48;;;0.20;99.90;;;;;;5115163;28;20084;-71
2021/12/11 01:04:08;;;;;;;30.10;18.88;;;0.20;99.90;;;;;;5130977;27;20118;-71
2021/12/11 01:06:49;;;;;;;31.98;18.98;;;0.20;99.90;;;;;;5113090;28;20047;-70
2021/12/11 01:09:21;;;;;;;27.48;16.92;;;0.20;99.90;;;;;;5096345;28;20039;-70
2021/12/11 01:12:03;;;;;;;31.35;22.05;;;0.10;99.90;;;;;;5114956;28;20043;-71
2021/12/11 01:14:49;;;;;;;34.70;20.25;;;0.20;99.90;;;;;;5114135;28;20040;-69
2021/12/11 01:17:30;;;;;;;36.70;22.05;;;0.10;99.90;;;;;;5113999;28;20401;-71
2021/12/11 01:20:00;;;;;;;31.98;21.15;;;0.10;99.90;;;;;;5114548;28;20031;-71
2021/12/11 01:22:34;;;;;;;32.97;22.08;;;0.10;99.90;;;;;;5114322;28;20043;-70
2021/12/11 01:25:13;;;;;;;34.90;22.70;;;0.10;99.90;;;;;;5114220;28;20099;-71
2021/12/11 01:27:42;;;;;;;34.95;23.00;;;0.10;99.90;;;;;;5113945;28;20040;-71
2021/12/11 01:30:12;;;;;;;38.40;22.25;;;0.10;99.90;;;;;;5114713;28;20085;-71
2021/12/11 01:32:39;;;;;;;32.40;21.13;;;0.10;99.90;;;;;;5114153;28;20426;-71
2021/12/11 01:35:08;;;;;;;29.77;17.58;;;0.10;99.90;;;;;;5114175;28;20392;-71
2021/12/11 01:37:34;;;;;;;26.70;16.17;;;0.10;99.90;;;;;;5113642;28;20393;-71
2021/12/11 01:40:03;;;;;;;23.00;14.93;;;0.10;99.90;;;;;;5114231;28;20120;-71
2021/12/11 01:42:31;;;;;;;26.00;15.93;;;0.00;99.90;;;;;;5113157;28;20043;-71
2021/12/11 01:44:59;;;;;;;34.17;18.25;;;0.00;99.90;;;;;;5114022;28;20048;-71
2021/12/11 01:47:33;;;;;;;31.23;18.92;;;0.00;99.90;;;;;;5113680;28;20122;-70
2021/12/11 01:50:08;;;;;;;29.83;18.63;;;0.00;99.90;;;;;;5113160;28;20062;-71
2021/12/11 01:52:41;;;;;;;28.63;17.73;;;0.00;99.90;;;;;;5112589;28;20116;-71
2021/12/11 01:55:29;;;;;;;27.98;17.33;;;0.00;99.90;;;;;;5095765;28;20048;-71
2021/12/11 01:57:56;;;;;;;26.85;17.05;;;0.00;99.90;;;;;;5113619;28;20036;-71
2021/12/11 02:00:27;;;;;;;28.40;16.77;;;0.00;99.90;;;;;;5113873;28;20032;-71
2021/12/11 02:02:55;;;;;;;27.60;16.77;;;0.00;99.90;;;;;;5095486;28;20039;-71
2021/12/11 02:05:26;;;;;;;28.27;17.50;;;0.00;99.90;;;;;;5113714;28;20047;-70
2021/12/11 02:08:04;;;;;;;28.73;17.33;;;0.00;99.90;;;;;;5113479;28;20136;-71
2021/12/11 02:10:34;;;;;;;27.95;16.70;;;0.00;99.90;;;;;;5113807;28;20043;-72
2021/12/11 02:13:06;;;;;;;23.65;16.48;;;0.00;99.90;;;;;;5112950;28;20516;-71
2021/12/11 02:15:36;;;;;;;24.52;15.93;;;0.00;99.90;;;;;;5112220;28;20058;-72
2021/12/11 02:18:12;;;;;;;25.85;15.80;;;0.00;99.90;;;;;;5112690;28;20471;-71
2021/12/11 02:20:53;;;;;;;27.50;16.40;;;0.00;99.90;;;;;;5113698;28;20031;-71
2021/12/11 02:23:19;;;;;;;28.00;17.20;;;-0.10;99.90;;;;;;5112399;28;20048;-70
2021/12/11 02:25:49;;;;;;;28.52;16.75;;;-0.10;99.90;;;;;;5113859;28;20047;-71
2021/12/11 02:28:20;;;;;;;28.10;15.65;;;-0.10;99.90;;;;;;5118038;28;20031;-71
2021/12/11 02:31:04;;;;;;;27.80;16.35;;;-0.20;99.90;;;;;;5117990;28;20032;-71
2021/12/11 02:33:35;;;;;;;24.92;15.77;;;-0.10;99.90;;;;;;5117115;28;20489;-72
2021/12/11 02:36:23;;;;;;;27.17;15.77;;;-0.20;99.90;;;;;;5117349;28;20040;-70
2021/12/11 02:39:21;;;;;;;25.35;15.60;;;-0.20;99.90;;;;;;5117826;27;20075;-71
2021/12/11 02:42:13;;;;;;;29.00;17.40;;;-0.20;99.90;;;;;;5115778;28;20434;-70
2021/12/11 02:45:20;;;;;;;27.50;14.93;;;-0.20;99.90;;;;;;5116116;28;20046;-71
2021/12/11 02:47:55;;;;;;;29.33;17.58;;;-0.20;99.90;;;;;;5116599;27;20454;-69
2021/12/11 02:50:28;;;;;;;27.77;16.65;;;-0.20;99.90;;;;;;5117509;28;20558;-70
2021/12/11 02:53:08;;;;;;;24.73;15.75;;;-0.20;99.90;;;;;;5117477;28;20043;-70
2021/12/11 02:55:57;;;;;;;25.38;16.35;;;-0.20;99.90;;;;;;5117150;28;20031;-70
2021/12/11 02:58:32;;;;;;;24.00;15.70;;;-0.10;99.90;;;;;;5115810;28;20039;-70
2021/12/11 03:01:04;;;;;;;26.88;15.50;;;-0.30;99.90;;;;;;5116035;28;20036;-70
2021/12/11 03:03:37;;;;;;;26.50;15.82;;;-0.30;99.90;;;;;;5117579;28;20043;-70
2021/12/11 03:06:10;;;;;;;29.20;16.02;;;-0.20;99.90;;;;;;5116798;28;20047;-70
2021/12/11 03:08:35;;;;;;;27.83;16.08;;;-0.20;99.90;;;;;;5117218;28;20110;-70
2021/12/11 03:11:05;;;;;;;27.60;16.58;;;-0.10;99.90;;;;;;5098605;28;20044;-71
2021/12/11 03:13:33;;;;;;;27.42;16.55;;;-0.10;99.90;;;;;;5117489;28;20118;-69
2021/12/11 03:16:01;;;;;;;26.80;15.88;;;-0.10;99.90;;;;;;5116545;27;20046;-70
2021/12/11 03:18:27;;;;;;;27.85;16.23;;;-0.10;99.90;;;;;;5116951;28;20035;-69
2021/12/11 03:20:54;;;;;;;24.50;15.95;;;0.00;99.90;;;;;;5116967;28;20042;-70
2021/12/11 03:23:20;;;;;;;26.77;15.95;;;-0.10;99.90;;;;;;5117295;28;20035;-70
2021/12/11 03:25:46;;;;;;;26.65;16.95;;;-0.10;99.90;;;;;;5116548;28;20036;-70
2021/12/11 03:28:14;;;;;;;31.85;17.45;;;-0.10;99.90;;;;;;5098116;28;20093;-71
2021/12/11 03:30:44;;;;;;;31.55;16.92;;;-0.10;99.90;;;;;;5116449;28;20089;-69
2021/12/11 03:33:15;;;;;;;27.67;16.08;;;0.00;99.90;;;;;;5116598;28;20043;-71
2021/12/11 03:35:41;;;;;;;24.70;15.52;;;-0.10;99.90;;;;;;5115000;28;20108;-70
2021/12/11 03:38:08;;;;;;;20.23;13.68;;;-0.10;99.90;;;;;;5114606;28;20043;-71
2021/12/11 03:40:34;;;;;;;32.08;17.77;;;-0.10;99.90;;;;;;5115330;28;20047;-70
2021/12/11 03:43:02;;;;;;;38.65;21.58;;;-0.20;99.90;;;;;;5116666;28;20414;-70
2021/12/11 03:45:33;;;;;;;33.63;19.45;;;-0.20;99.90;;;;;;5116212;28;20043;-70
2021/12/11 03:48:11;;;;;;;34.35;20.02;;;-0.20;99.90;;;;;;5114751;28;20044;-69
2021/12/11 03:50:38;;;;;;;31.38;18.05;;;-0.20;99.90;;;;;;5114822;28;20051;-70
2021/12/11 03:53:05;;;;;;;31.88;19.95;;;-0.10;99.90;;;;;;5116505;28;20350;-70
2021/12/11 03:55:35;;;;;;;29.85;17.40;;;-0.10;99.90;;;;;;5115566;28;20039;-70
2021/12/11 03:58:01;;;;;;;33.40;18.33;;;0.00;99.90;;;;;;5116570;28;20096;-70
2021/12/11 04:00:44;;;;;;;29.98;18.23;;;0.00;99.90;;;;;;5116451;28;20078;-69
2021/12/11 04:03:13;;;;;;;32.95;17.73;;;0.00;99.90;;;;;;5116443;28;20070;-70
2021/12/11 04:05:41;;;;;;;35.17;19.48;;;0.00;99.90;;;;;;5115507;28;20071;-70
2021/12/11 04:08:11;;;;;;;34.70;20.75;;;0.00;99.90;;;;;;5115699;28;20416;-70
2021/12/11 04:10:38;;;;;;;29.58;18.65;;;0.00;99.90;;;;;;5116235;28;20554;-69
2021/12/11 04:13:07;;;;;;;34.22;19.33;;;0.00;99.90;;;;;;5116197;28;20080;-69
2021/12/11 04:15:34;;;;;;;34.90;19.42;;;0.00;99.90;;;;;;5115846;28;20047;-70
2021/12/11 04:18:00;;;;;;;31.58;18.77;;;0.10;99.90;;;;;;5114723;28;20040;-70
2021/12/11 04:20:28;;;;;;;27.23;17.20;;;0.10;99.90;;;;;;5115968;28;20118;-70
2021/12/11 04:22:55;;;;;;;30.85;18.83;;;0.10;99.90;;;;;;5115725;28;20032;-70
2021/12/11 04:25:24;;;;;;;28.85;17.77;;;0.10;99.90;;;;;;5115331;28;20048;-70
2021/12/11 04:27:51;;;;;;;32.40;17.88;;;0.10;99.90;;;;;;5115741;28;20404;-70
2021/12/11 04:30:21;;;;;;;31.10;18.40;;;0.10;99.90;;;;;;5115176;28;20042;-69
2021/12/11 04:32:48;;;;;;;30.05;17.45;;;0.10;99.90;;;;;;5115491;28;20042;-69
2021/12/11 04:35:16;;;;;;;32.65;18.92;;;-0.10;99.90;;;;;;5115438;28;20135;-69
2021/12/11 04:37:42;;;;;;;32.92;19.05;;;-0.10;99.90;;;;;;5114709;28;20047;-70
2021/12/11 04:40:16;;;;;;;36.75;20.50;;;0.00;99.90;;;;;;5115300;28;20035;-69
2021/12/11 04:45:15;;;;;;;34.78;19.95;;;0.00;99.90;;;;;;5114029;28;20058;-69
2021/12/11 04:47:51;;;;;;;32.33;18.20;;;-0.10;99.90;;;;;;5114803;28;20040;-70
2021/12/11 04:50:35;;;;;;;28.17;18.75;;;0.00;99.90;;;;;;5114408;28;20500;-69
2021/12/11 04:53:04;;;;;;;37.50;18.85;;;0.00;99.90;;;;;;5114985;28;20097;-69
2021/12/11 05:04:05;;;;;;;26.90;16.75;;;-0.10;99.90;;;;;;5113410;28;20043;-70
2021/12/11 05:11:47;;;;;;;31.90;16.67;;;-0.10;99.90;;;;;;5113537;28;20059;-69
2021/12/11 05:14:15;;;;;;;27.38;17.55;;;-0.10;99.90;;;;;;5114485;28;20047;-70
2021/12/11 05:16:41;;;;;;;28.33;17.70;;;-0.10;99.90;;;;;;5112658;28;20484;-70
2021/12/11 05:19:08;;;;;;;29.70;18.30;;;-0.10;99.90;;;;;;5114412;28;20039;-70
2021/12/11 05:21:34;;;;;;;30.60;18.52;;;-0.10;99.90;;;;;;5096359;28;20557;-70
2021/12/11 05:24:00;;;;;;;32.22;20.02;;;-0.10;99.90;;;;;;5114581;28;20040;-70
2021/12/11 05:26:27;;;;;;;31.63;19.00;;;-0.10;99.90;;;;;;5113967;28;20097;-70
2021/12/11 05:28:53;;;;;;;29.10;18.25;;;-0.10;99.90;;;;;;5113011;28;20055;-70
2021/12/11 05:31:19;;;;;;;33.90;19.42;;;-0.10;99.90;;;;;;5114357;28;20036;-70
2021/12/11 05:33:46;;;;;;;30.45;18.00;;;0.00;99.90;;;;;;5114304;28;20047;-69
2021/12/11 05:36:14;;;;;;;28.65;17.60;;;-0.10;99.90;;;;;;5112582;28;20071;-70
2021/12/11 05:38:41;;;;;;;29.50;17.88;;;-0.10;99.90;;;;;;5114383;28;20036;-70
2021/12/11 05:41:11;;;;;;;32.38;19.13;;;0.00;99.90;;;;;;5114311;28;20057;-69
2021/12/11 05:43:38;;;;;;;32.60;17.30;;;0.00;99.90;;;;;;5112846;28;20051;-69
2021/12/11 05:46:06;;;;;;;32.58;18.05;;;0.10;99.90;;;;;;5113780;28;20039;-69
2021/12/11 05:48:32;;;;;;;29.10;18.27;;;0.00;99.90;;;;;;5114183;28;20131;-70
2021/12/11 05:51:01;;;;;;;28.45;17.65;;;0.10;99.90;;;;;;5112834;28;20043;-70
2021/12/11 05:53:31;;;;;;;35.15;18.10;;;0.00;99.90;;;;;;5113786;28;20035;-70
2021/12/11 05:55:59;;;;;;;30.65;18.38;;;0.10;99.90;;;;;;5113567;28;20044;-70
2021/12/11 06:01:09;;;;;;;31.95;19.17;;;0.10;99.90;;;;;;5112406;28;20039;-70
2021/12/11 06:03:37;;;;;;;29.25;17.63;;;0.10;99.90;;;;;;5112432;28;20115;-70
2021/12/11 06:06:04;;;;;;;28.98;16.58;;;0.10;99.90;;;;;;5113431;28;20043;-70
2021/12/11 06:08:31;;;;;;;28.17;17.15;;;0.10;99.90;;;;;;5112578;28;20477;-70
2021/12/11 06:10:57;;;;;;;35.63;21.05;;;0.10;99.90;;;;;;5113856;28;20042;-70
2021/12/11 06:13:25;;;;;;;28.75;18.00;;;0.00;99.90;;;;;;5113910;28;20545;-70
2021/12/11 06:15:51;;;;;;;26.23;16.48;;;0.00;99.90;;;;;;5113778;28;20054;-70
2021/12/11 06:18:19;;;;;;;31.13;16.60;;;0.00;99.90;;;;;;5112210;28;20071;-70
2021/12/11 06:20:45;;;;;;;29.30;18.25;;;0.00;99.90;;;;;;5113834;28;20478;-70
2021/12/11 06:23:11;;;;;;;25.38;15.90;;;0.00;99.90;;;;;;5112524;28;20038;-70
2021/12/11 06:25:37;;;;;;;31.30;18.00;;;0.00;99.90;;;;;;5112537;28;20043;-70
2021/12/11 06:28:05;;;;;;;31.92;17.40;;;-0.10;99.90;;;;;;5112421;28;20047;-70
2021/12/11 06:30:31;;;;;;;27.42;16.73;;;-0.10;99.90;;;;;;5113642;28;20089;-70
2021/12/11 06:32:56;;;;;;;28.25;18.15;;;0.00;99.90;;;;;;5114151;28;20423;-70
2021/12/11 06:35:37;;;;;;;28.85;17.33;;;0.00;99.90;;;;;;5112026;28;20096;-70
2021/12/11 06:38:06;;;;;;;30.98;17.55;;;-0.10;99.90;;;;;;5112298;28;20046;-70
2021/12/11 06:40:32;;;;;;;29.63;17.92;;;0.00;99.90;;;;;;5113620;28;20031;-69
2021/12/11 06:42:58;;;;;;;31.17;18.05;;;0.00;99.90;;;;;;5113751;28;20485;-70
2021/12/11 06:45:27;;;;;;;32.10;19.38;;;0.00;99.90;;;;;;5112490;28;20039;-71
2021/12/11 06:47:53;;;;;;;33.55;18.27;;;0.00;99.90;;;;;;5113070;28;20047;-71
2021/12/11 06:50:19;;;;;;;26.98;16.98;;;0.00;99.90;;;;;;5113300;28;20040;-70
2021/12/11 06:52:46;;;;;;;28.75;17.13;;;0.00;99.90;;;;;;5113258;27;20119;-70
2021/12/11 06:55:12;;;;;;;31.75;18.38;;;0.00;99.90;;;;;;5113267;28;20047;-70
2021/12/11 06:57:38;;;;;;;29.92;17.80;;;0.10;99.90;;;;;;5113434;28;20039;-70
2021/12/11 07:00:05;;;;;;;33.22;18.67;;;0.00;99.90;;;;;;5112445;28;20351;-70
2021/12/11 07:02:31;;;;;;;26.70;16.80;;;0.00;99.90;;;;;;5113347;28;20046;-70
2021/12/11 07:04:57;;;;;;;32.15;19.92;;;0.00;99.90;;;;;;5113120;28;20035;-70
2021/12/11 07:07:27;;;;;;;31.45;19.00;;;0.00;99.90;;;;;;5112740;28;20105;-70
2021/12/11 07:09:55;;;;;;;34.13;18.80;;;0.00;99.90;;;;;;5111840;28;20036;-70
2021/12/11 07:12:21;;;;;;;33.22;20.23;;;0.00;99.90;;;;;;5115253;28;20047;-70
2021/12/11 07:14:47;;;;;;;32.55;19.60;;;0.00;99.90;;;;;;5115600;28;20393;-70
2021/12/11 07:17:13;;;;;;;35.92;21.13;;;-0.10;99.90;;;;;;5116322;28;20043;-70
2021/12/11 07:19:39;;;;;;;40.05;22.77;;;-0.10;99.90;;;;;;5115413;28;20043;-69
2021/12/11 07:22:05;;;;;;;34.67;20.88;;;-0.10;99.90;;;;;;5116779;28;20032;-69
2021/12/11 07:24:36;;;;;;;44.95;21.38;;;-0.20;99.90;;;;;;5116731;28;20035;-70
2021/12/11 07:27:05;;;;;;;37.35;21.90;;;-0.10;99.90;;;;;;5116159;28;20532;-70
2021/12/11 07:29:31;;;;;;;33.03;20.65;;;-0.10;99.90;;;;;;5115480;28;20075;-70
2021/12/11 07:31:58;;;;;;;36.00;20.13;;;-0.10;99.90;;;;;;5116622;28;20483;-70
2021/12/11 07:34:24;;;;;;;37.90;21.73;;;-0.10;99.90;;;;;;5116340;28;20413;-70
2021/12/11 07:36:51;;;;;;;32.25;19.98;;;0.00;99.90;;;;;;5115117;28;20050;-70
2021/12/11 07:39:19;;;;;;;34.80;20.63;;;-0.10;99.90;;;;;;5115468;28;20046;-70
2021/12/11 07:41:45;;;;;;;35.30;20.27;;;-0.10;99.90;;;;;;5115438;28;20097;-70
2021/12/11 07:44:11;;;;;;;34.72;19.90;;;-0.20;99.90;;;;;;5116135;28;20442;-69
2021/12/11 07:46:36;;;;;;;35.03;20.75;;;-0.20;99.90;;;;;;5115474;28;20036;-69
2021/12/11 07:49:04;;;;;;;40.85;23.15;;;-0.10;99.90;;;;;;5116416;28;20519;-70
2021/12/11 07:51:34;;;;;;;31.88;20.30;;;-0.10;99.90;;;;;;5116131;28;20039;-70
2021/12/11 07:54:00;;;;;;;35.05;19.70;;;-0.10;99.90;;;;;;5116068;28;20489;-70
2021/12/11 07:56:26;;;;;;;34.45;21.30;;;-0.10;99.90;;;;;;5115581;28;20089;-69
2021/12/11 07:58:55;;;;;;;36.17;20.58;;;-0.10;99.90;;;;;;5116059;28;20055;-70
2021/12/11 08:01:22;;;;;;;32.72;19.83;;;-0.10;99.90;;;;;;5116199;28;20078;-69
2021/12/11 08:03:48;;;;;;;30.70;19.33;;;-0.10;99.90;;;;;;5114661;28;20035;-69
2021/12/11 08:06:15;;;;;;;34.05;19.98;;;0.00;99.90;;;;;;5115531;27;20523;-70
2021/12/11 08:08:42;;;;;;;31.85;19.80;;;0.00;99.90;;;;;;5115819;28;20040;-70
2021/12/11 08:11:13;;;;;;;32.80;18.77;;;0.00;99.90;;;;;;5115299;27;20046;-70
2021/12/11 08:13:41;;;;;;;34.22;21.42;;;0.00;99.90;;;;;;5116063;28;20384;-70
2021/12/11 08:16:06;;;;;;;32.33;20.27;;;0.00;99.90;;;;;;5115478;28;20118;-69
2021/12/11 08:18:32;;;;;;;32.30;20.10;;;0.00;99.90;;;;;;5115435;28;20049;-70
2021/12/11 08:20:58;;;;;;;33.05;20.48;;;0.00;99.90;;;;;;5115065;28;20039;-70
2021/12/11 08:23:25;;;;;;;37.70;21.02;;;0.10;99.90;;;;;;5114209;28;20488;-70
2021/12/11 08:25:51;;;;;;;35.03;21.83;;;0.10;99.90;;;;;;5115211;28;20111;-70
2021/12/11 08:28:23;;;;;;;36.88;21.55;;;0.10;99.90;;;;;;5115583;28;20114;-70
2021/12/11 08:30:50;;;;;;;37.40;20.63;;;0.20;99.90;;;;;;5114100;28;20060;-69
2021/12/11 08:33:16;;;;;;;36.75;21.48;;;0.20;99.90;;;;;;5115430;28;20036;-69
2021/12/11 08:35:43;;;;;;;39.83;20.65;;;0.20;99.90;;;;;;5113585;28;20046;-70
2021/12/11 08:38:09;;;;;;;38.25;22.40;;;0.30;99.90;;;;;;5115003;28;20558;-71
2021/12/11 08:40:39;;;;;;;33.20;20.05;;;0.20;99.90;;;;;;5113907;28;20036;-70
2021/12/11 08:43:08;;;;;;;39.10;23.02;;;0.20;99.90;;;;;;5115504;28;20043;-70
2021/12/11 08:45:55;;;;;;;47.88;30.45;;;0.20;99.90;;;;;;5115071;28;20126;-70
2021/12/11 08:48:23;;;;;;;56.67;35.13;;;0.20;99.90;;;;;;5114472;28;20047;-71
2021/12/11 08:50:53;;;;;;;53.67;35.47;;;0.20;99.90;;;;;;5114905;28;20046;-71
2021/12/11 08:53:19;;;;;;;52.35;33.25;;;0.30;99.90;;;;;;5113792;28;20050;-71
2021/12/11 08:55:48;;;;;;;50.33;29.90;;;0.30;99.90;;;;;;5114807;28;20047;-72
2021/12/11 08:58:16;;;;;;;46.70;29.17;;;0.40;99.90;;;;;;5114815;28;20401;-72
2021/12/11 09:01:08;;;;;;;54.20;34.60;;;0.50;99.90;;;;;;5113402;28;20046;-71
2021/12/11 09:03:39;;;;;;;54.00;33.05;;;0.50;99.90;;;;;;5105155;28;20104;-71
2021/12/11 09:06:28;;;;;;;49.45;29.65;;;0.60;99.90;;;;;;5113079;28;20519;-71
2021/12/11 09:09:42;;;;;;;43.63;27.50;;;0.70;99.90;;;;;;5113848;28;20054;-72
2021/12/11 09:12:19;;;;;;;45.33;27.13;;;0.70;99.90;;;;;;5098355;28;20047;-72
2021/12/11 09:14:53;;;;;;;49.17;28.33;;;0.70;99.90;;;;;;5113775;28;20082;-71
2021/12/11 09:17:22;;;;;;;;;;;0.80;99.90;;;;;;5114761;28;20497;-71
2021/12/11 09:19:55;;;;;;;42.10;24.52;;;0.80;99.90;;;;;;5114607;28;19965;-72
2021/12/11 09:22:40;;;;;;;47.15;26.38;;;0.80;99.90;;;;;;5113152;28;20067;-71
2021/12/11 09:25:21;;;;;;;45.15;27.20;;;0.90;99.90;;;;;;5113610;28;20436;-72
2021/12/11 09:27:50;;;;;;;50.83;30.58;;;0.90;99.90;;;;;;5112911;28;20031;-71
2021/12/11 09:30:21;;;;;;;47.90;29.80;;;1.00;99.90;;;;;;5114121;28;20338;-72
2021/12/11 09:32:56;;;;;;;48.65;28.83;;;1.00;99.90;;;;;;5113250;28;20370;-71
2021/12/11 09:35:27;;;;;;;49.85;26.13;;;1.10;99.90;;;;;;5113984;28;20138;-72
2021/12/11 09:37:59;;;;;;;42.55;25.13;;;1.10;99.90;;;;;;5113889;28;20031;-72
2021/12/11 09:40:54;;;;;;;47.58;26.65;;;1.20;99.90;;;;;;5114417;28;20036;-70
2021/12/11 09:43:46;;;;;;;44.33;25.02;;;1.20;99.90;;;;;;5112857;28;20043;-70
2021/12/11 09:46:18;;;;;;;41.03;23.75;;;1.20;99.90;;;;;;5113900;28;20497;-70
2021/12/11 09:48:47;;;;;;;46.13;24.90;;;1.20;99.90;;;;;;5113961;28;20408;-70
2021/12/11 09:51:15;;;;;;;46.38;26.65;;;1.30;99.90;;;;;;5113892;28;20165;-70
2021/12/11 09:53:45;;;;;;;48.20;25.38;;;1.30;99.90;;;;;;5113933;28;20088;-71
2021/12/11 09:56:21;;;;;;;43.03;25.20;;;1.30;99.90;;;;;;5113125;28;20039;-71
2021/12/11 09:58:47;;;;;;;42.25;24.80;;;1.40;99.90;;;;;;5096001;28;20051;-71
2021/12/11 10:01:19;;;;;;;51.25;26.50;;;1.40;99.90;;;;;;5114315;28;20036;-70
2021/12/11 10:03:53;;;;;;;43.85;24.83;;;1.50;99.90;;;;;;5114352;28;20450;-72
2021/12/11 10:06:44;;;;;;;46.67;27.17;;;1.50;99.90;;;;;;5113861;28;20452;-72
2021/12/11 10:09:27;;;;;;;47.78;26.40;;;1.60;99.90;;;;;;5114121;27;20134;-72
2021/12/11 10:12:11;;;;;;;45.83;23.98;;;1.60;99.90;;;;;;5113807;28;20062;-72
2021/12/11 10:14:43;;;;;;;51.53;26.60;;;1.70;99.90;;;;;;5113963;28;20132;-72
2021/12/11 10:17:14;;;;;;;40.05;24.73;;;1.70;99.90;;;;;;5113209;28;20039;-72
2021/12/11 10:19:41;;;;;;;43.50;24.63;;;1.80;99.90;;;;;;5112870;28;20075;-70
2021/12/11 10:22:17;;;;;;;41.63;23.95;;;1.80;99.90;;;;;;5112595;28;20370;-70
2021/12/11 10:24:44;;;;;;;38.42;22.65;;;1.90;99.90;;;;;;5112447;28;20051;-71
2021/12/11 10:27:12;;;;;;;35.33;22.58;;;1.90;99.90;;;;;;5113175;28;20039;-72
2021/12/11 10:29:41;;;;;;;42.70;23.27;;;1.90;99.90;;;;;;5113498;28;20043;-71
2021/12/11 10:32:12;;;;;;;46.53;27.23;;;2.00;99.90;;;;;;5112516;28;20039;-72
2021/12/11 10:34:41;;;;;;;49.45;28.50;;;2.00;99.90;;;;;;5095305;28;20044;-71
2021/12/11 10:37:09;;;;;;;49.10;28.05;;;2.00;99.90;;;;;;5112979;28;20489;-71
2021/12/11 10:39:37;;;;;;;51.42;28.00;;;2.00;99.90;;;;;;5112285;28;20031;-72
2021/12/11 10:42:04;;;;;;;52.28;26.35;;;2.10;99.90;;;;;;5112285;28;20396;-72
2021/12/11 10:44:35;;;;;;;51.45;27.77;;;2.10;99.90;;;;;;5112070;28;20044;-71
2021/12/11 10:47:20;;;;;;;50.20;27.02;;;2.10;99.90;;;;;;5096020;28;20048;-71
2021/12/11 10:49:47;;;;;;;47.40;25.27;;;2.10;99.90;;;;;;5117659;28;20465;-71
2021/12/11 10:52:25;;;;;;;49.50;27.42;;;2.20;99.90;;;;;;5116201;28;20044;-71
2021/12/11 10:54:54;;;;;;;46.38;26.30;;;2.30;99.90;;;;;;5116939;27;20051;-72
2021/12/11 10:57:22;;;;;;;43.92;26.00;;;2.40;99.90;;;;;;5116674;28;20046;-71
2021/12/11 10:59:52;;;;;;;48.13;25.48;;;2.50;99.90;;;;;;5117271;28;20040;-71
2021/12/11 11:02:24;;;;;;;50.33;25.15;;;2.60;99.90;;;;;;5117108;28;20043;-71
2021/12/11 11:04:55;;;;;;;44.67;26.63;;;2.70;99.90;;;;;;5115793;28;20028;-71
2021/12/11 11:07:22;;;;;;;43.60;27.30;;;2.80;99.90;;;;;;5114782;28;20115;-71
2021/12/11 11:09:49;;;;;;;50.88;27.52;;;2.80;99.90;;;;;;5115882;28;20050;-71
2021/12/11 11:12:19;;;;;;;46.08;27.92;;;2.90;99.90;;;;;;5117093;27;20075;-71
2021/12/11 11:14:47;;;;;;;48.80;26.55;;;2.90;99.90;;;;;;5116815;28;20039;-71
2021/12/11 11:17:17;;;;;;;44.67;25.40;;;2.90;99.90;;;;;;5116268;28;20100;-72
2021/12/11 11:19:45;;;;;;;42.47;24.73;;;3.00;99.90;;;;;;5115688;28;20097;-72
2021/12/11 11:22:17;;;;;;;44.25;24.90;;;3.00;99.90;;;;;;5116539;27;20043;-72
2021/12/11 11:24:59;;;;;;;46.78;25.55;;;3.20;99.90;;;;;;5116613;28;20038;-71
2021/12/11 11:27:25;;;;;;;44.35;26.02;;;3.30;99.90;;;;;;5116068;27;20075;-71
2021/12/11 11:29:50;;;;;;;44.67;25.27;;;3.30;99.90;;;;;;5115719;28;20068;-71
2021/12/11 11:32:21;;;;;;;51.83;28.00;;;3.30;99.90;;;;;;5115260;28;20061;-71
2021/12/11 11:34:47;;;;;;;47.75;23.90;;;3.30;99.90;;;;;;5117000;28;20031;-71
2021/12/11 11:37:17;;;;;;;47.72;25.90;;;3.40;99.90;;;;;;5115816;28;20099;-71
2021/12/11 11:39:43;;;;;;;48.28;26.88;;;3.50;99.90;;;;;;5116736;28;20039;-71
2021/12/11 11:42:20;;;;;;;50.17;26.05;;;3.60;99.90;;;;;;5116359;28;20451;-70
2021/12/11 11:44:47;;;;;;;37.47;21.67;;;3.70;99.90;;;;;;5115034;28;20087;-71
2021/12/11 11:47:15;;;;;;;44.53;24.48;;;3.70;99.90;;;;;;5115518;28;20122;-70
2021/12/11 11:49:42;;;;;;;49.25;26.25;;;3.70;99.90;;;;;;5116582;28;20035;-71
2021/12/11 11:52:11;;;;;;;46.42;27.00;;;3.80;99.90;;;;;;5114772;28;20044;-70
2021/12/11 11:54:41;;;;;;;43.97;24.10;;;3.90;99.90;;;;;;5116130;28;20096;-70
2021/12/11 11:57:11;;;;;;;40.15;24.17;;;4.00;99.90;;;;;;5115745;28;20491;-71
2021/12/11 11:59:39;;;;;;;44.35;25.30;;;4.10;99.90;;;;;;5114696;28;20098;-71
2021/12/11 12:02:09;;;;;;;40.88;25.08;;;4.20;99.90;;;;;;5115650;28;20075;-71
2021/12/11 12:04:37;;;;;;;41.60;24.13;;;4.20;99.90;;;;;;5114503;28;20093;-71
2021/12/11 12:07:05;;;;;;;47.45;26.08;;;4.20;99.90;;;;;;5114155;28;20051;-71
2021/12/11 12:09:35;;;;;;;41.92;24.05;;;4.20;99.90;;;;;;5116349;28;20031;-71
2021/12/11 12:12:03;;;;;;;48.30;26.88;;;4.20;99.90;;;;;;5116287;28;20043;-72
2021/12/11 12:14:32;;;;;;;41.92;25.45;;;4.20;99.90;;;;;;5115744;28;20092;-71
2021/12/11 12:16:59;;;;;;;48.95;26.65;;;4.20;99.90;;;;;;5115104;28;20040;-71
2021/12/11 12:19:26;;;;;;;44.15;26.60;;;4.10;99.90;;;;;;5115863;28;20035;-71
2021/12/11 12:21:55;;;;;;;44.03;27.80;;;4.10;99.90;;;;;;5116136;28;20373;-70
2021/12/11 12:24:25;;;;;;;45.03;26.73;;;4.10;99.90;;;;;;5114468;28;20040;-72
2021/12/11 12:26:51;;;;;;;50.97;27.30;;;4.00;99.90;;;;;;5115107;28;20124;-71
2021/12/11 12:29:18;;;;;;;46.90;27.13;;;4.00;99.90;;;;;;5115619;28;20047;-72
2021/12/11 12:31:51;;;;;;;44.97;26.92;;;3.90;99.90;;;;;;5114485;28;20043;-72
2021/12/11 12:34:18;;;;;;;49.60;27.90;;;4.00;99.90;;;;;;5097298;28;20062;-72
2021/12/11 12:36:45;;;;;;;46.15;26.67;;;4.00;99.90;;;;;;5115208;28;20036;-70
2021/12/11 12:39:13;;;;;;;49.83;27.85;;;4.00;99.90;;;;;;5113962;28;20046;-70
2021/12/11 12:42:03;;;;;;;45.65;26.30;;;4.10;99.90;;;;;;5115376;28;20051;-71
2021/12/11 12:44:29;;;;;;;45.72;26.35;;;4.20;99.90;;;;;;5113876;28;20043;-72
2021/12/11 12:47:11;;;;;;;42.60;25.45;;;4.20;99.90;;;;;;5114704;28;20043;-71
2021/12/11 12:49:40;;;;;;;42.38;24.83;;;4.20;99.90;;;;;;5114376;28;20438;-71
2021/12/11 12:52:26;;;;;;;40.67;24.27;;;4.20;99.90;;;;;;5114157;28;20044;-71
2021/12/11 12:54:53;;;;;;;43.22;24.75;;;4.20;99.90;;;;;;5113701;28;20039;-71
2021/12/11 12:57:24;;;;;;;45.60;26.25;;;4.20;99.90;;;;;;5114559;28;20097;-70
2021/12/11 13:00:13;;;;;;;43.20;25.15;;;4.20;99.90;;;;;;5114786;28;20035;-71
2021/12/11 13:02:40;;;;;;;46.67;28.15;;;4.20;99.90;;;;;;5114108;27;20079;-72
2021/12/11 13:05:12;;;;;;;44.40;26.50;;;4.30;99.90;;;;;;5114575;28;20088;-72
2021/12/11 13:07:38;;;;;;;47.80;27.95;;;4.30;99.90;;;;;;5112965;28;20489;-72
2021/12/11 13:10:09;;;;;;;67.30;45.80;;;4.40;99.90;;;;;;5114321;28;20036;-72
2021/12/11 13:12:39;;;;;;;96.55;63.75;;;4.50;99.90;;;;;;5114583;28;20035;-71